Time;durP1;ratioP1;P1;durP2;ratioP2;P2;SDS_P1;SDS_P2;PMS_P1;PMS_P2;Temp;Humidity;BMP_temperature;BMP_pressure;BME280_temperature;BME280_humidity;BME280_pressure;Samples;Min_cycle;Max_cycle;Signal;HPM_P1;HPM_P2
2022/09/19 00:00:51;;;;;;;1.35;0.80;;;;;;;7.46;100.00;99535.09;5015237;28;20084;-75
2022/09/19 00:03:16;;;;;;;2.50;1.20;;;;;;;7.46;100.00;99528.63;4981364;28;20037;-75
2022/09/19 00:05:42;;;;;;;2.33;1.05;;;;;;;7.35;100.00;99543.41;5013769;28;20379;-75
2022/09/19 00:08:08;;;;;;;1.45;1.13;;;;;;;7.33;100.00;99540.28;4997304;28;20030;-76
2022/09/19 00:10:40;;;;;;;2.13;1.10;;;;;;;7.28;100.00;99535.28;5015048;28;20464;-76
2022/09/19 00:13:07;;;;;;;1.25;1.10;;;;;;;7.16;100.00;99530.66;5013934;28;20026;-76
2022/09/19 00:15:37;;;;;;;2.47;1.13;;;;;;;7.02;100.00;99526.56;5013676;28;20029;-76
2022/09/19 00:18:03;;;;;;;1.83;1.48;;;;;;;7.00;100.00;99533.97;4997159;28;20026;-76
2022/09/19 00:20:29;;;;;;;4.25;1.35;;;;;;;6.90;100.00;99541.00;4997038;28;20050;-76
2022/09/19 00:25:39;;;;;;;2.00;1.30;;;;;;;6.83;100.00;99524.34;5014043;28;20037;-77
2022/09/19 00:28:04;;;;;;;2.95;1.50;;;;;;;6.72;100.00;99535.50;4997109;28;20025;-76
2022/09/19 00:30:30;;;;;;;4.47;1.58;;;;;;;6.70;100.00;99529.50;5013731;28;20061;-76
2022/09/19 00:32:56;;;;;;;2.40;1.30;;;;;;;6.69;100.00;99531.53;5031826;28;20052;-76
2022/09/19 00:35:21;;;;;;;3.10;1.58;;;;;;;6.68;100.00;99532.84;5033355;28;20030;-76
2022/09/19 00:37:47;;;;;;;2.15;1.55;;;;;;;6.64;100.00;99529.38;5031528;28;20050;-76
2022/09/19 00:40:12;;;;;;;1.98;1.77;;;;;;;6.62;100.00;99538.41;5032063;28;20044;-76
2022/09/19 00:42:38;;;;;;;1.98;1.77;;;;;;;6.58;100.00;99522.81;5033064;28;20060;-75
2022/09/19 00:45:07;;;;;;;1.85;1.70;;;;;;;6.60;100.00;99523.91;5033054;28;20029;-75
2022/09/19 00:47:36;;;;;;;3.03;1.60;;;;;;;6.55;100.00;99520.94;5032885;28;20112;-75
2022/09/19 00:50:07;;;;;;;2.05;1.38;;;;;;;6.52;100.00;99514.19;5032842;28;20105;-75
2022/09/19 00:52:53;;;;;;;1.50;1.40;;;;;;;6.48;100.00;99524.94;5033072;28;20095;-75
2022/09/19 00:55:18;;;;;;;2.38;1.83;;;;;;;6.46;100.00;99523.84;5032885;28;20040;-76
2022/09/19 00:57:55;;;;;;;4.28;2.38;;;;;;;6.44;100.00;99530.00;5033057;28;20514;-76
2022/09/19 01:00:21;;;;;;;2.08;1.60;;;;;;;6.38;100.00;99522.66;5015962;28;20025;-76
2022/09/19 01:02:48;;;;;;;3.28;1.65;;;;;;;6.39;100.00;99518.53;5015987;28;20029;-75
2022/09/19 01:05:16;;;;;;;2.25;1.70;;;;;;;6.49;100.00;99520.81;5032606;28;20029;-75
2022/09/19 01:08:17;;;;;;;2.53;1.52;;;;;;;6.50;100.00;99519.56;5016235;28;20021;-76
2022/09/19 01:10:52;;;;;;;2.95;1.70;;;;;;;6.60;100.00;99526.72;5016618;28;20045;-76
2022/09/19 01:13:25;;;;;;;3.10;1.70;;;;;;;6.66;100.00;99516.28;5031869;28;20049;-77
2022/09/19 01:16:07;;;;;;;1.90;1.80;;;;;;;6.62;100.00;99518.53;5014144;28;20028;-76
2022/09/19 01:18:40;;;;;;;3.88;1.90;;;;;;;6.62;100.00;99526.25;5030377;28;20069;-76
2022/09/19 01:24:08;;;;;;;2.80;2.17;;;;;;;6.43;100.00;99519.16;5031114;28;20082;-76
2022/09/19 01:26:39;;;;;;;5.63;1.80;;;;;;;6.41;100.00;99522.47;5030779;28;20466;-75
2022/09/19 01:29:11;;;;;;;2.15;1.85;;;;;;;6.42;100.00;99521.19;5032632;28;20021;-75
2022/09/19 01:31:40;;;;;;;4.40;1.83;;;;;;;6.49;100.00;99517.97;5014204;28;20426;-75
2022/09/19 01:34:13;;;;;;;1.77;1.42;;;;;;;6.54;100.00;99517.31;5013641;28;20024;-76
2022/09/19 01:37:12;;;;;;;2.55;1.63;;;;;;;6.55;100.00;99518.88;5030092;28;20052;-76
2022/09/19 01:39:40;;;;;;;4.32;1.60;;;;;;;6.57;100.00;99519.19;5013435;28;20026;-75
2022/09/19 01:42:05;;;;;;;2.70;1.83;;;;;;;6.59;100.00;99519.47;5029959;28;20440;-75
2022/09/19 01:44:31;;;;;;;3.15;2.03;;;;;;;6.58;100.00;99517.91;5013608;28;20112;-76
2022/09/19 01:47:17;;;;;;;2.90;1.92;;;;;;;6.64;100.00;99518.03;5032497;28;20517;-76
2022/09/19 01:49:53;;;;;;;3.80;1.65;;;;;;;6.60;100.00;99521.06;5033375;28;20108;-75
2022/09/19 01:52:42;;;;;;;2.22;1.67;;;;;;;6.58;100.00;99512.22;5017376;28;20029;-76
2022/09/19 01:55:30;;;;;;;2.10;1.80;;;;;;;6.53;100.00;99515.78;5031589;28;20040;-75
2022/09/19 01:58:06;;;;;;;5.13;1.65;;;;;;;6.48;100.00;99519.28;5019517;28;20060;-74
2022/09/19 02:00:33;;;;;;;7.20;2.10;;;;;;;6.38;100.00;99514.94;5019551;28;20041;-76
2022/09/19 02:03:03;;;;;;;5.47;1.98;;;;;;;6.39;100.00;99524.19;5019321;28;20029;-75
2022/09/19 02:05:39;;;;;;;2.97;1.90;;;;;;;6.35;100.00;99518.72;5037328;28;20108;-76
2022/09/19 02:08:23;;;;;;;3.08;2.75;;;;;;;6.33;100.00;99524.09;5036018;28;20100;-76
2022/09/19 02:10:56;;;;;;;3.13;2.20;;;;;;;6.34;100.00;99522.06;5037077;28;20474;-76
2022/09/19 02:13:24;;;;;;;2.42;1.88;;;;;;;6.34;100.00;99517.13;5019203;28;20459;-76
2022/09/19 02:15:55;;;;;;;2.22;2.03;;;;;;;6.37;100.00;99519.03;5019259;28;20025;-76
2022/09/19 02:18:26;;;;;;;2.55;1.88;;;;;;;6.32;100.00;99514.03;5019049;28;20021;-76
2022/09/19 02:20:59;;;;;;;2.77;1.83;;;;;;;6.40;100.00;99526.56;5036937;28;20041;-76
2022/09/19 02:23:27;;;;;;;2.53;1.55;;;;;;;6.39;100.00;99513.63;5035814;28;20032;-76
2022/09/19 02:25:54;;;;;;;4.05;1.80;;;;;;;6.41;100.00;99518.84;5035777;28;20029;-75
2022/09/19 02:28:25;;;;;;;1.83;1.73;;;;;;;6.41;100.00;99522.47;5019288;28;20025;-76
2022/09/19 02:30:51;;;;;;;2.40;1.80;;;;;;;6.45;100.00;99520.22;5035656;28;20021;-76
2022/09/19 02:33:17;;;;;;;2.55;2.35;;;;;;;6.54;100.00;99519.38;5018985;28;20059;-75
2022/09/19 02:36:22;;;;;;;2.53;2.20;;;;;;;6.59;100.00;99524.38;5035435;28;20386;-76
2022/09/19 02:39:19;;;;;;;2.05;1.85;;;;;;;6.69;100.00;99523.03;4978758;28;20104;-76
2022/09/19 02:42:09;;;;;;;2.53;2.13;;;;;;;6.70;100.00;99538.81;5035185;28;20382;-76
2022/09/19 02:44:38;;;;;;;2.55;2.00;;;;;;;6.75;100.00;99526.78;5018845;28;20497;-76
2022/09/19 02:47:16;;;;;;;3.67;2.65;;;;;;;6.83;100.00;99530.03;5036676;28;20029;-76
2022/09/19 02:49:46;;;;;;;2.78;1.77;;;;;;;6.87;100.00;99539.16;5018848;28;20022;-76
2022/09/19 02:52:17;;;;;;;2.50;2.03;;;;;;;6.93;100.00;99537.97;5036540;28;20032;-76
2022/09/19 02:54:45;;;;;;;4.15;2.25;;;;;;;7.05;100.00;99541.81;5018832;28;20510;-76
2022/09/19 02:57:13;;;;;;;2.20;1.88;;;;;;;7.09;100.00;99539.56;5035051;28;20025;-76
2022/09/19 02:59:41;;;;;;;2.25;2.05;;;;;;;7.10;100.00;99541.13;5035103;28;20068;-75
2022/09/19 03:02:11;;;;;;;3.55;2.30;;;;;;;7.22;100.00;99545.78;5018220;28;20025;-75
2022/09/19 03:04:40;;;;;;;3.47;2.28;;;;;;;7.33;100.00;99545.16;5034078;28;20033;-76
2022/09/19 03:07:13;;;;;;;5.68;2.53;;;;;;;7.39;100.00;99546.84;5034889;28;20056;-75
2022/09/19 03:09:41;;;;;;;4.43;2.33;;;;;;;7.51;100.00;99556.38;5034775;28;20025;-75
2022/09/19 03:12:52;;;;;;;5.88;2.10;;;;;;;7.49;100.00;99547.53;5034936;28;20032;-75
2022/09/19 03:15:24;;;;;;;4.22;2.30;;;;;;;7.52;100.00;99538.78;4978023;28;20026;-76
2022/09/19 03:17:51;;;;;;;4.97;2.72;;;;;;;7.34;100.00;99536.16;5030835;28;20148;-76
2022/09/19 03:20:18;;;;;;;3.92;2.53;;;;;;;7.33;100.00;99539.47;5017766;28;20046;-76
2022/09/19 03:22:45;;;;;;;3.78;2.72;;;;;;;7.24;100.00;99550.94;5034812;28;20021;-76
2022/09/19 03:25:11;;;;;;;10.23;2.67;;;;;;;7.19;100.00;99552.41;5018161;28;20139;-76
2022/09/19 03:27:37;;;;;;;3.67;2.47;;;;;;;7.10;100.00;99556.13;5018177;28;20108;-76
2022/09/19 03:30:07;;;;;;;4.18;2.80;;;;;;;7.10;100.00;99558.97;5034382;28;20529;-76
2022/09/19 03:32:34;;;;;;;3.63;2.70;;;;;;;7.07;100.00;99562.00;5017809;28;20022;-77
2022/09/19 03:34:59;;;;;;;6.70;2.40;;;;;;;7.01;100.00;99561.13;5017819;28;20040;-76
2022/09/19 03:37:25;;;;;;;5.38;2.42;;;;;;;6.98;100.00;99560.00;5034488;28;20029;-76
2022/09/19 03:39:51;;;;;;;2.97;2.60;;;;;;;6.93;100.00;99560.69;5017605;28;20021;-76
2022/09/19 03:42:19;;;;;;;3.67;2.78;;;;;;;6.86;100.00;99558.25;5017616;28;20544;-75
2022/09/19 03:44:45;;;;;;;4.70;2.45;;;;;;;6.91;100.00;99560.41;5017923;28;20496;-76
2022/09/19 03:47:10;;;;;;;3.58;2.45;;;;;;;6.93;100.00;99569.22;5034024;28;20021;-76
2022/09/19 03:49:35;;;;;;;4.93;3.00;;;;;;;7.00;100.00;99568.06;5034276;28;20013;-76
2022/09/19 03:52:01;;;;;;;4.55;2.90;;;;;;;7.02;100.00;99574.84;5033979;28;20099;-76
2022/09/19 03:54:27;;;;;;;3.55;2.92;;;;;;;6.96;100.00;99573.16;5017442;28;20108;-76
2022/09/19 03:56:53;;;;;;;6.03;3.17;;;;;;;7.01;100.00;99576.09;5017430;28;20041;-76
2022/09/19 03:59:18;;;;;;;3.10;2.58;;;;;;;7.04;100.00;99580.00;5017172;28;20072;-76
2022/09/19 04:01:44;;;;;;;3.47;2.80;;;;;;;7.12;100.00;99580.44;5017165;28;20029;-76
2022/09/19 04:04:10;;;;;;;5.07;2.53;;;;;;;7.16;100.00;99578.19;5017102;28;20020;-75
2022/09/19 04:06:36;;;;;;;5.05;2.55;;;;;;;7.24;100.00;99580.16;5033954;28;20047;-75
2022/09/19 04:09:02;;;;;;;4.13;1.98;;;;;;;7.26;100.00;99579.66;5033539;28;20038;-75
2022/09/19 04:11:28;;;;;;;4.22;1.73;;;;;;;7.19;100.00;99594.25;5017040;28;20029;-75
2022/09/19 04:13:55;;;;;;;2.88;1.70;;;;;;;7.27;100.00;99590.56;5033533;28;20025;-75
2022/09/19 04:16:23;;;;;;;3.47;1.60;;;;;;;7.31;100.00;99602.50;5017147;28;20433;-76
2022/09/19 04:18:50;;;;;;;6.25;3.92;;;;;;;7.35;100.00;99599.47;5016740;28;20053;-75
2022/09/19 04:21:16;;;;;;;4.47;2.00;;;;;;;7.35;100.00;99596.63;5017020;28;20061;-75
2022/09/19 04:23:42;;;;;;;3.22;1.85;;;;;;;7.33;100.00;99602.78;5034748;28;20032;-76
2022/09/19 04:26:10;;;;;;;3.88;1.63;;;;;;;7.44;100.00;99607.91;5016789;28;20029;-76
2022/09/19 04:28:38;;;;;;;2.22;1.60;;;;;;;7.42;100.00;99602.69;5034568;28;20028;-76
2022/09/19 04:31:04;;;;;;;1.67;1.45;;;;;;;7.36;100.00;99607.50;5034660;28;20021;-76
2022/09/19 04:33:31;;;;;;;3.88;1.35;;;;;;;7.48;100.00;99614.19;5033166;28;20040;-76
2022/09/19 04:36:00;;;;;;;1.27;0.85;;;;;;;7.53;100.00;99619.97;5033058;28;20055;-76
2022/09/19 04:38:26;;;;;;;3.03;1.38;;;;;;;7.49;100.00;99619.38;5033266;28;20076;-76
2022/09/19 04:40:56;;;;;;;2.42;1.25;;;;;;;7.48;100.00;99626.34;5016389;28;20060;-76
2022/09/19 04:43:37;;;;;;;2.08;0.77;;;;;;;7.49;100.00;99619.38;5033178;28;20060;-76
2022/09/19 04:46:04;;;;;;;2.15;0.80;;;;;;;7.52;100.00;99624.06;5033240;28;20528;-76
2022/09/19 04:48:30;;;;;;;2.28;1.08;;;;;;;7.51;100.00;99619.69;5000723;28;20037;-76
2022/09/19 04:50:57;;;;;;;1.42;0.75;;;;;;;7.53;100.00;99617.13;5032962;28;20492;-77
2022/09/19 04:53:24;;;;;;;2.90;0.93;;;;;;;7.54;100.00;99634.97;5016378;28;20029;-74
2022/09/19 04:55:51;;;;;;;1.95;0.73;;;;;;;7.56;100.00;99635.28;4999988;28;20030;-75
2022/09/19 04:58:19;;;;;;;2.92;0.70;;;;;;;7.61;100.00;99634.59;5000088;28;20033;-74
2022/09/19 05:00:55;;;;;;;3.35;1.10;;;;;;;7.56;100.00;99640.97;5029668;28;20075;-73
2022/09/19 05:03:25;;;;;;;2.83;1.30;;;;;;;7.58;100.00;99646.94;5016499;28;20104;-74
2022/09/19 05:05:53;;;;;;;2.22;1.15;;;;;;;7.58;100.00;99643.28;5000370;28;20032;-73
2022/09/19 05:08:28;;;;;;;1.33;1.02;;;;;;;7.49;100.00;99644.97;4999746;28;20033;-74
2022/09/19 05:10:56;;;;;;;5.47;1.25;;;;;;;7.69;100.00;99647.13;5033739;28;20025;-75
2022/09/19 05:13:31;;;;;;;1.70;1.10;;;;;;;7.68;100.00;99644.78;4999620;28;20041;-75
2022/09/19 05:16:00;;;;;;;1.08;0.98;;;;;;;7.60;100.00;99657.81;5032629;28;20033;-74
2022/09/19 05:18:25;;;;;;;1.25;1.15;;;;;;;7.53;100.00;99653.28;5015765;28;20040;-73
2022/09/19 05:20:54;;;;;;;2.05;1.02;;;;;;;7.53;100.00;99661.81;5032255;28;20029;-74
2022/09/19 05:23:22;;;;;;;3.97;1.33;;;;;;;7.60;100.00;99661.44;5016053;28;20037;-74
2022/09/19 05:25:52;;;;;;;1.67;1.10;;;;;;;7.62;100.00;99660.97;5032532;28;20422;-74
2022/09/19 05:28:19;;;;;;;1.60;1.20;;;;;;;7.75;100.00;99667.16;5015881;28;20025;-75
2022/09/19 05:30:54;;;;;;;2.10;1.33;;;;;;;7.63;100.00;99671.84;5032346;28;20069;-73
2022/09/19 05:33:26;;;;;;;2.63;1.60;;;;;;;7.73;100.00;99669.69;5016472;28;20069;-75
2022/09/19 05:36:01;;;;;;;1.40;1.30;;;;;;;7.74;100.00;99672.06;5000575;28;20472;-75
2022/09/19 05:38:28;;;;;;;1.60;1.40;;;;;;;7.82;100.00;99678.91;5015559;28;20152;-76
2022/09/19 05:40:54;;;;;;;2.05;1.52;;;;;;;7.78;100.00;99669.00;5013290;28;20021;-75
2022/09/19 05:43:21;;;;;;;3.72;1.75;;;;;;;7.89;100.00;99677.75;5031337;28;20032;-74
2022/09/19 05:45:47;;;;;;;1.67;1.20;;;;;;;7.90;100.00;99685.00;5013485;28;20030;-75
2022/09/19 05:48:13;;;;;;;3.30;1.45;;;;;;;7.89;100.00;99683.44;5030071;28;20025;-75
2022/09/19 05:50:39;;;;;;;5.03;1.65;;;;;;;7.85;100.00;99691.38;5032369;28;20090;-75
2022/09/19 05:55:49;;;;;;;1.92;1.50;;;;;;;8.05;100.00;99697.19;5032444;28;20048;-75
2022/09/19 05:58:17;;;;;;;1.80;1.60;;;;;;;8.15;100.00;99700.72;5014935;28;20389;-76
2022/09/19 06:00:43;;;;;;;3.65;2.45;;;;;;;8.21;100.00;99702.38;5029651;28;20140;-76
2022/09/19 06:03:16;;;;;;;1.83;1.60;;;;;;;8.28;100.00;99702.00;5013164;28;20127;-75
2022/09/19 06:05:43;;;;;;;3.47;1.50;;;;;;;8.23;100.00;99708.38;5013690;28;20021;-75
2022/09/19 06:08:09;;;;;;;3.17;1.70;;;;;;;8.41;100.00;99704.53;5029636;28;20037;-76
2022/09/19 06:10:39;;;;;;;1.58;1.48;;;;;;;8.46;100.00;99701.00;5013103;28;20422;-75
2022/09/19 06:13:13;;;;;;;4.53;1.35;;;;;;;8.36;100.00;99708.84;5029738;28;20030;-76
2022/09/19 06:15:38;;;;;;;6.57;1.63;;;;;;;8.42;100.00;99705.31;5031974;28;20036;-74
2022/09/19 06:18:04;;;;;;;2.60;1.38;;;;;;;8.50;100.00;99706.50;5015301;28;20389;-76
2022/09/19 06:20:29;;;;;;;1.50;1.40;;;;;;;8.30;100.00;99708.00;5015035;28;20536;-74
2022/09/19 06:22:56;;;;;;;3.03;1.80;;;;;;;8.40;100.00;99714.38;5015317;28;20064;-75
2022/09/19 06:25:22;;;;;;;4.32;1.63;;;;;;;8.38;100.00;99717.69;5015004;28;20036;-75
2022/09/19 06:27:59;;;;;;;5.65;2.20;;;;;;;8.56;100.00;99715.94;5015072;28;20030;-76
2022/09/19 06:30:25;;;;;;;3.20;2.08;;;;;;;8.76;100.00;99721.66;5028529;28;20061;-76
2022/09/19 06:32:51;;;;;;;4.28;2.28;;;;;;;8.96;100.00;99720.91;5031110;28;20025;-77
2022/09/19 06:35:18;;;;;;;2.50;2.00;;;;;;;9.08;100.00;99716.94;5015973;28;20056;-78
2022/09/19 06:37:43;;;;;;;3.55;1.60;;;;;;;9.13;100.00;99722.72;5012804;28;20111;-77
2022/09/19 06:40:10;;;;;;;5.85;1.75;;;;;;;8.98;100.00;99722.00;5002482;28;20044;-76
2022/09/19 06:42:36;;;;;;;2.88;1.70;;;;;;;9.21;100.00;99721.00;5030596;28;20564;-76
2022/09/19 06:45:01;;;;;;;2.13;1.48;;;;;;;9.18;100.00;99721.25;5015109;28;20118;-77
2022/09/19 06:47:26;;;;;;;4.43;1.65;;;;;;;9.18;100.00;99724.09;5011979;28;20659;-77
2022/09/19 06:49:52;;;;;;;2.45;1.48;;;;;;;9.20;100.00;99721.50;5014907;28;20025;-79
2022/09/19 06:52:18;;;;;;;2.63;1.52;;;;;;;9.29;100.00;99729.94;5015468;28;20025;-77
2022/09/19 06:54:44;;;;;;;3.50;1.48;;;;;;;9.40;100.00;99734.97;5028352;28;20116;-77
2022/09/19 06:57:11;;;;;;;3.03;1.42;;;;;;;9.54;100.00;99734.94;5028448;28;20155;-77
2022/09/19 06:59:36;;;;;;;2.25;1.40;;;;;;;9.65;100.00;99732.19;5031114;28;20029;-78
2022/09/19 07:02:02;;;;;;;2.72;1.90;;;;;;;9.49;100.00;99732.81;5034160;28;20038;-76
2022/09/19 07:04:27;;;;;;;3.22;2.33;;;;;;;9.50;100.00;99742.13;5035336;28;20029;-76
2022/09/19 07:06:54;;;;;;;3.13;1.70;;;;;;;9.31;100.00;99752.22;5016495;28;20033;-76
2022/09/19 07:09:19;;;;;;;2.25;2.00;;;;;;;9.24;100.00;99753.47;5026423;28;20072;-75
2022/09/19 07:11:46;;;;;;;3.67;1.80;;;;;;;9.19;100.00;99754.16;5018958;28;20176;-76
2022/09/19 07:14:11;;;;;;;3.92;1.75;;;;;;;9.33;100.00;99764.72;5026279;28;20029;-75
2022/09/19 07:16:36;;;;;;;2.60;1.92;;;;;;;9.62;100.00;99758.09;5035793;28;20446;-76
2022/09/19 07:19:02;;;;;;;1.73;1.58;;;;;;;9.83;100.00;99759.69;5034106;28;20044;-78
2022/09/19 07:21:27;;;;;;;4.15;2.05;;;;;;;10.00;100.00;99760.66;5018058;28;20022;-75
2022/09/19 07:23:54;;;;;;;4.57;2.28;;;;;;;9.97;100.00;99766.59;5034372;28;20371;-75
2022/09/19 07:26:20;;;;;;;2.75;1.98;;;;;;;9.86;100.00;99769.31;5035131;28;20116;-74
2022/09/19 07:28:46;;;;;;;3.75;2.30;;;;;;;9.97;100.00;99775.16;5018667;28;20437;-73
2022/09/19 07:31:11;;;;;;;3.75;2.13;;;;;;;10.21;100.00;99772.03;5034047;28;20021;-73
2022/09/19 07:33:36;;;;;;;2.88;1.80;;;;;;;10.30;100.00;99777.56;5034211;28;20029;-75
2022/09/19 07:36:02;;;;;;;4.97;1.98;;;;;;;10.47;100.00;99782.16;5034304;28;20026;-75
2022/09/19 07:38:28;;;;;;;4.65;2.65;;;;;;;10.53;100.00;99782.22;5034451;28;20021;-76
2022/09/19 07:40:54;;;;;;;2.80;2.03;;;;;;;10.61;100.00;99782.53;5036667;28;20380;-77
2022/09/19 07:43:20;;;;;;;2.72;1.90;;;;;;;10.84;100.00;99787.91;5037244;28;20032;-79
2022/09/19 07:45:47;;;;;;;4.60;2.42;;;;;;;10.85;100.00;99785.84;5031670;28;20033;-78
2022/09/19 07:48:13;;;;;;;4.63;1.88;;;;;;;11.24;100.00;99786.16;5013930;28;20390;-78
2022/09/19 07:50:39;;;;;;;5.28;2.30;;;;;;;11.58;100.00;99782.19;5029973;28;20022;-79
2022/09/19 07:53:07;;;;;;;7.60;1.77;;;;;;;11.80;100.00;99788.03;5013961;28;20040;-78
2022/09/19 07:55:33;;;;;;;4.53;2.50;;;;;;;11.89;100.00;99792.75;5046804;28;20032;-80
2022/09/19 07:58:00;;;;;;;3.85;1.90;;;;;;;11.97;100.00;99790.94;5014315;28;20033;-78
2022/09/19 08:00:27;;;;;;;2.70;1.67;;;;;;;12.10;100.00;99799.06;5013994;28;20030;-77
2022/09/19 08:03:00;;;;;;;2.55;1.75;;;;;;;11.98;100.00;99791.72;5013895;28;20431;-80
2022/09/19 08:05:27;;;;;;;2.10;1.80;;;;;;;11.62;100.00;99794.16;5013375;28;20454;-78
2022/09/19 08:07:53;;;;;;;2.50;1.70;;;;;;;11.63;100.00;99809.25;5014766;28;20068;-79
2022/09/19 08:10:20;;;;;;;4.45;1.75;;;;;;;11.76;100.00;99812.47;5013727;28;20053;-79
2022/09/19 08:12:46;;;;;;;3.20;1.90;;;;;;;11.86;100.00;99810.16;5013758;28;20022;-81
2022/09/19 08:15:18;;;;;;;2.85;1.80;;;;;;;11.92;100.00;99808.88;5015336;28;20036;-81
2022/09/19 08:17:57;;;;;;;3.13;1.63;;;;;;;11.63;100.00;99812.91;5046703;28;20484;-80
2022/09/19 08:20:23;;;;;;;3.20;1.75;;;;;;;11.77;100.00;99808.28;5014651;28;20048;-81
2022/09/19 08:22:48;;;;;;;3.08;1.90;;;;;;;12.04;100.00;99813.38;5013676;28;20112;-81
2022/09/19 08:25:14;;;;;;;2.03;1.60;;;;;;;12.25;100.00;99826.19;5013332;28;20060;-80
2022/09/19 08:27:44;;;;;;;2.92;1.70;;;;;;;12.37;100.00;99821.28;5013598;28;20022;-80
2022/09/19 08:30:10;;;;;;;2.50;1.73;;;;;;;12.27;100.00;99817.84;5013254;28;20112;-74
2022/09/19 08:32:35;;;;;;;3.25;1.80;;;;;;;12.08;100.00;99824.56;5046079;28;20562;-72
2022/09/19 08:35:00;;;;;;;4.93;1.90;;;;;;;11.36;100.00;99828.63;5014377;28;20493;-75
2022/09/19 08:37:26;;;;;;;2.70;1.83;;;;;;;10.99;100.00;99840.03;5014136;28;20527;-75
2022/09/19 08:42:47;;;;;;;3.92;1.70;;;;;;;11.32;100.00;99830.94;5034065;28;20036;-79
2022/09/19 08:45:27;;;;;;;5.85;1.90;;;;;;;11.28;100.00;99846.75;5016230;28;20029;-79
2022/09/19 08:47:53;;;;;;;2.47;1.67;;;;;;;11.29;100.00;99839.75;5032703;28;20056;-78
2022/09/19 08:50:24;;;;;;;6.93;1.95;;;;;;;11.24;100.00;99849.06;5016063;28;20087;-75
2022/09/19 08:52:53;;;;;;;3.15;1.60;;;;;;;11.26;100.00;99840.78;5032615;28;20478;-75
2022/09/19 08:55:26;;;;;;;3.38;1.63;;;;;;;11.52;100.00;99844.31;5032183;28;20115;-76
2022/09/19 08:58:01;;;;;;;1.92;1.83;;;;;;;11.97;100.00;99835.97;5032446;28;20064;-76
2022/09/19 09:00:40;;;;;;;5.13;1.88;;;;;;;12.32;100.00;99844.16;5032469;28;20025;-75
2022/09/19 09:03:16;;;;;;;3.78;1.90;;;;;;;12.63;100.00;99829.69;5033856;28;20029;-78
2022/09/19 09:05:52;;;;;;;3.08;1.63;;;;;;;13.43;100.00;99838.56;5032254;28;20021;-77
2022/09/19 09:08:53;;;;;;;5.53;1.60;;;;;;;14.08;99.42;99835.25;5033492;28;20032;-76
2022/09/19 09:11:22;;;;;;;2.03;1.20;;;;;;;14.74;95.95;99832.03;5032124;28;20029;-81
2022/09/19 09:13:56;;;;;;;3.20;1.58;;;;;;;15.28;88.96;99837.09;5032086;28;20060;-76
2022/09/19 09:16:53;;;;;;;1.73;1.25;;;;;;;15.14;85.87;99850.56;5032047;28;20462;-80
2022/09/19 09:19:45;;;;;;;5.72;1.52;;;;;;;14.85;86.29;99845.56;5032247;28;20091;-81
2022/09/19 09:22:22;;;;;;;3.83;1.63;;;;;;;14.66;86.75;99850.41;5022469;28;20053;-78
2022/09/19 09:25:08;;;;;;;4.57;2.30;;;;;;;14.53;88.51;99856.69;5032241;28;20116;-79
2022/09/19 09:27:41;;;;;;;4.97;1.85;;;;;;;14.15;90.34;99846.97;5032099;28;20040;-79
2022/09/19 09:30:16;;;;;;;4.00;1.83;;;;;;;13.76;91.99;99855.72;5031538;28;20435;-79
2022/09/19 09:32:47;;;;;;;5.20;2.08;;;;;;;13.87;94.26;99855.72;5015551;28;20108;-81
2022/09/19 09:35:30;;;;;;;8.07;1.65;;;;;;;13.62;93.59;99867.50;5032207;28;20025;-82
2022/09/19 09:38:08;;;;;;;2.28;1.50;;;;;;;13.43;97.18;99862.31;5032039;28;20108;-78
2022/09/19 09:43:50;;;;;;;;;;;;;;;13.36;94.67;99867.78;5035955;28;20080;-79
2022/09/19 09:46:22;;;;;;;1.73;1.38;;;;;;;13.51;95.95;99868.31;5032049;28;19909;-78
2022/09/19 09:48:47;;;;;;;;;;;;;;;13.50;97.67;99867.50;5016558;28;20034;-78
2022/09/19 09:51:39;;;;;;;4.40;1.40;;;;;;;13.70;97.30;99868.53;5031927;28;19996;-78
2022/09/19 09:56:14;;;;;;;2.35;1.00;;;;;;;13.79;96.71;99874.78;5032102;28;20279;-81
2022/09/19 09:57:01;;;;;;;2.27;1.17;;;;;;;13.47;94.40;99880.03;5033107;28;20475;-81
2022/09/19 10:05:33;;;;;;;5.88;2.00;;;;;;;12.88;97.73;99874.56;5032607;28;20052;-79
2022/09/19 10:08:28;;;;;;;4.30;2.05;;;;;;;12.96;100.00;99871.94;5032144;28;20036;-81
2022/09/19 10:11:02;;;;;;;4.90;2.00;;;;;;;13.33;100.00;99886.84;5045542;28;20493;-82
2022/09/19 10:13:31;;;;;;;3.78;2.10;;;;;;;13.42;99.78;99877.16;5034591;28;20099;-82
2022/09/19 10:16:02;;;;;;;2.38;1.92;;;;;;;13.51;98.53;99888.41;5036903;28;20479;-77
2022/09/19 10:18:37;;;;;;;2.53;2.10;;;;;;;13.46;96.87;99889.16;5018982;28;20029;-77
2022/09/19 10:21:03;;;;;;;5.22;2.03;;;;;;;13.21;97.58;99893.88;5031185;28;20029;-79
2022/09/19 10:23:32;;;;;;;4.50;2.65;;;;;;;13.17;98.05;99883.97;5036376;28;20542;-77
2022/09/19 10:25:59;;;;;;;5.53;2.75;;;;;;;12.99;98.48;99891.78;5019563;28;20088;-76
2022/09/19 10:28:36;;;;;;;2.67;2.47;;;;;;;12.83;100.00;99898.28;5035091;28;20029;-78
2022/09/19 10:31:04;;;;;;;4.72;2.75;;;;;;;12.83;100.00;99906.09;5018445;28;20033;-77
2022/09/19 10:33:45;;;;;;;5.63;2.92;;;;;;;12.88;100.00;99903.22;5018876;28;20033;-74
2022/09/19 10:36:19;;;;;;;4.82;2.47;;;;;;;12.83;100.00;99904.00;5014552;28;20125;-75
2022/09/19 10:38:58;;;;;;;5.22;2.83;;;;;;;13.02;100.00;99907.94;5041984;28;20047;-76
2022/09/19 10:41:26;;;;;;;8.05;2.90;;;;;;;13.05;100.00;99901.16;5025036;28;20372;-78
2022/09/19 10:43:57;;;;;;;4.40;2.50;;;;;;;12.92;100.00;99908.72;5038638;28;20052;-77
2022/09/19 10:46:35;;;;;;;5.15;2.30;;;;;;;12.95;100.00;99901.91;5046531;28;20033;-79
2022/09/19 10:49:02;;;;;;;5.15;3.00;;;;;;;12.96;100.00;99909.22;5046801;28;20061;-75
2022/09/19 10:51:43;;;;;;;5.40;2.65;;;;;;;13.01;100.00;99917.84;5035549;28;20363;-77
2022/09/19 10:54:41;;;;;;;6.00;2.30;;;;;;;13.09;100.00;99912.41;5034328;28;20036;-76
2022/09/19 10:57:28;;;;;;;3.80;2.30;;;;;;;13.05;100.00;99921.22;5035290;28;20459;-76
2022/09/19 10:59:54;;;;;;;3.85;2.67;;;;;;;12.90;100.00;99917.81;5033753;28;20041;-76
2022/09/19 11:02:24;;;;;;;11.50;2.97;;;;;;;12.25;100.00;99926.47;5035356;28;20083;-77
2022/09/19 11:04:59;;;;;;;6.22;2.75;;;;;;;11.97;100.00;99927.59;5036993;28;20424;-79
2022/09/19 11:07:30;;;;;;;5.05;2.08;;;;;;;11.78;100.00;99925.16;5021231;28;20080;-77
2022/09/19 11:09:59;;;;;;;3.65;2.00;;;;;;;11.86;100.00;99921.81;5040772;28;20084;-78
2022/09/19 11:12:26;;;;;;;7.15;2.58;;;;;;;11.67;100.00;99919.34;5038737;28;20087;-78
2022/09/19 11:14:55;;;;;;;9.73;3.17;;;;;;;11.28;100.00;99918.28;5039761;28;20025;-78
2022/09/19 11:17:38;;;;;;;13.85;3.88;;;;;;;11.42;100.00;99919.44;5039664;28;20033;-79
2022/09/19 11:20:20;;;;;;;16.10;4.20;;;;;;;11.63;100.00;99918.81;5050748;28;20048;-79
2022/09/19 11:23:17;;;;;;;7.18;2.50;;;;;;;11.59;100.00;99926.06;5060733;28;20493;-79
2022/09/19 11:25:48;;;;;;;4.13;2.42;;;;;;;11.93;100.00;99922.13;5052372;28;20116;-79
2022/09/19 11:28:52;;;;;;;3.72;2.60;;;;;;;12.40;100.00;99928.38;5039419;28;20029;-79
2022/09/19 11:31:30;;;;;;;3.47;2.55;;;;;;;12.56;100.00;99921.91;4982078;28;20030;-77
2022/09/19 11:34:03;;;;;;;7.63;2.88;;;;;;;12.51;100.00;99919.81;4999207;28;20141;-79
2022/09/19 11:36:47;;;;;;;3.45;2.58;;;;;;;12.64;100.00;99920.13;5022673;28;20313;-80
2022/09/19 11:39:25;;;;;;;3.00;2.10;;;;;;;12.46;100.00;99918.47;5041695;28;20025;-78
2022/09/19 11:42:06;;;;;;;2.33;1.48;;;;;;;12.51;100.00;99919.81;5040595;28;20048;-78
2022/09/19 11:44:43;;;;;;;1.40;1.23;;;;;;;12.60;100.00;99928.19;5023663;28;20032;-78
2022/09/19 11:47:10;;;;;;;3.92;1.90;;;;;;;12.51;100.00;99922.66;5039323;28;20069;-79
2022/09/19 11:50:04;;;;;;;2.03;1.67;;;;;;;12.49;100.00;99920.34;5036360;28;20386;-79
2022/09/19 11:52:51;;;;;;;3.17;2.13;;;;;;;12.38;100.00;99925.22;5036602;28;20128;-80
2022/09/19 11:55:49;;;;;;;4.70;1.67;;;;;;;12.40;100.00;99929.16;5034685;28;20040;-82
2022/09/19 11:58:35;;;;;;;5.18;2.00;;;;;;;12.46;100.00;99923.44;5024298;28;20041;-81
2022/09/19 12:01:35;;;;;;;3.35;1.98;;;;;;;12.20;100.00;99915.78;5034053;28;20049;-78
2022/09/19 12:04:19;;;;;;;6.95;2.83;;;;;;;12.09;100.00;99923.50;5017177;28;20045;-72
2022/09/19 12:07:24;;;;;;;4.40;2.55;;;;;;;12.27;100.00;99914.47;5035039;28;20120;-73
2022/09/19 12:09:55;;;;;;;4.15;2.30;;;;;;;12.37;100.00;99918.72;5035244;28;20033;-80
2022/09/19 12:12:24;;;;;;;3.88;2.90;;;;;;;12.21;100.00;99910.78;5034671;28;20040;-83